Список аэропортов
Фактическая погода:

19 августа, 04:30
Температура: +9°C (+8.0*)
Ветер: восточный 2 м/с
Давление: *764 мм
Без существ. явл.
Время (МСК)Темп. СВетерВлажностьДавлениеОблачностьОсадки
02:00+10СВ, 2 м/с98%1020 гПаоблачно
03:00+10СВ, 2 м/с98%1019 гПаоблачно
04:00+10В, 2 м/с99%1019 гПаоблачно
05:00+10В, 2 м/с97%1019 гПаоблачно
06:00+11СВ, 2 м/с92%1019 гПаоблачно
07:00+14В, 2 м/с79%1018 гПас прояснениями
08:00+16В, 3 м/с70%1018 гПаоблачно
09:00+15В, 3 м/с76%1017 гПаоблачно
10:00+16В, 3 м/с72%1017 гПаоблачно
11:00+18В, 3 м/с65%1016 гПаоблачно
12:00+19В, 3 м/с64%1015 гПаоблачно
13:00+20В, 4 м/с61%1015 гПаоблачно
14:00+20В, 4 м/с61%1014 гПас прояснениями
15:00+21В, 4 м/с60%1013 гПаоблачно
16:00+20ЮВ, 3 м/с67%1013 гПаоблачно
17:00+19ЮВ, 3 м/с71%1013 гПаоблачно
18:00+19ЮВ, 3 м/с76%1013 гПаоблачно
19:00+18ЮВ, 3 м/с79%1014 гПаоблачно
20:00+17ЮВ, 2 м/с83%1014 гПаоблачно
21:00+16ЮВ, 2 м/с87%1014 гПаоблачно
22:00+16ЮВ, 2 м/с91%1014 гПаоблачно
23:00+16ЮВ, 2 м/с91%1013 гПаоблачно
20 августа
00:00+16ЮВ, 2 м/с91%1013 гПаоблачно
01:00+16ЮВ, 2 м/с92%1013 гПаоблачно
02:00+15ЮВ, 1 м/с94%1013 гПаоблачно
03:00+15ЮВ, 2 м/с96%1014 гПаоблачно
04:00+15ЮВ, 2 м/с96%1013 гПаоблачно
05:00+15ЮВ, 2 м/с96%1014 гПаоблачно
06:00+15ЮВ, 2 м/с94%1013 гПаоблачно
07:00+16ЮВ, 2 м/с90%1013 гПаоблачно
08:00+17ЮВ, 2 м/с86%1013 гПаоблачно
09:00+18ЮВ, 3 м/с83%1013 гПаоблачно
10:00+18ЮВ, 2 м/с83%1013 гПаоблачно
11:00+19ЮВ, 3 м/с77%1013 гПаоблачно
12:00+20Ю, 3 м/с70%1013 гПаоблачно
13:00+20Ю, 3 м/с72%1013 гПаоблачно
14:00+20ЮЗ, 3 м/с72%1014 гПаоблачно
15:00+20ЮЗ, 2 м/с71%1014 гПаоблачно
16:00+20Ю, 1 м/с71%1014 гПаоблачно
17:00+18ЮВ, 1 м/с85%1014 гПаоблачно
18:00+18В, 1 м/с90%1014 гПаоблачно
19:00+16В, 1 м/с95%1014 гПас прояснениями
20:00+15В, 1 м/с99%1014 гПас прояснениями
21:00+14СВ, 1 м/с99%1014 гПаоблачно
22:00+14В, 1 м/с100%1014 гПаоблачно
23:00+14СВ, 1 м/с100%1014 гПаоблачно
21 августа
00:00+14СЗ, 1 м/с100%1014 гПаоблачно
01:00+13З, 1 м/с100%1015 гПаоблачно
02:00+13З, 1 м/с100%1015 гПаоблачносл. дождь